Terminal Aerodrome Forecast
Issued by NWS

Home | Current Version | Previous Version | Text Only | Print | Product List | Glossary On
Versions: 1 2 3 4 5 6 7 8 9 10
735
FTUS43 KJKL 080540
TAFSJS
TAF
KSJS 080540Z 0806/0906 23004KT P6SM VCSH BKN070
     FM081300 24004KT 3SM -SHRA OVC050
     FM081500 27006KT P6SM BKN025 OVC050
     FM081700 27007KT 3SM -SHRA VCTS BKN035CB
     FM082300 27006KT 3SM -SN BKN015=

USA.gov is the U.S. government's official web portal to all federal, state and local government web resources and services.